createdAt,value
2023-12-11T00:01:41.568Z,11.10
2023-12-11T00:04:08.560Z,11.10
2023-12-11T00:06:35.611Z,11.10
2023-12-11T00:09:02.488Z,11.10
2023-12-11T00:11:29.322Z,11.10
2023-12-11T00:13:56.331Z,11.10
2023-12-11T00:16:23.378Z,11.20
2023-12-11T00:18:50.338Z,11.20
2023-12-11T00:21:17.676Z,11.20
2023-12-11T00:23:44.661Z,11.20
2023-12-11T00:26:11.977Z,11.20
2023-12-11T00:28:38.913Z,11.20
2023-12-11T00:31:12.025Z,11.20
2023-12-11T00:33:40.756Z,11.30
2023-12-11T00:36:08.041Z,11.30
2023-12-11T00:38:34.876Z,11.40
2023-12-11T00:41:01.764Z,11.40
2023-12-11T00:43:28.566Z,11.40
2023-12-11T00:46:21.223Z,11.40
2023-12-11T00:48:48.313Z,11.50
2023-12-11T00:51:19.524Z,11.50
2023-12-11T00:53:47.601Z,11.50
2023-12-11T00:56:14.940Z,11.50
2023-12-11T00:58:41.807Z,11.50
2023-12-11T01:01:09.157Z,11.60
2023-12-11T01:03:39.991Z,11.60
2023-12-11T01:06:07.297Z,11.60
2023-12-11T01:08:39.517Z,11.60
2023-12-11T01:11:07.551Z,11.60
2023-12-11T01:13:34.416Z,11.60
2023-12-11T01:16:01.537Z,11.50
2023-12-11T01:18:28.888Z,11.50
2023-12-11T01:20:56.046Z,11.50
2023-12-11T01:23:22.866Z,11.50
2023-12-11T01:25:49.812Z,11.50
2023-12-11T01:28:16.747Z,11.50
2023-12-11T01:30:43.841Z,11.50
2023-12-11T01:33:10.849Z,11.60
2023-12-11T01:35:38.680Z,11.60
2023-12-11T01:38:05.537Z,11.60
2023-12-11T01:40:32.552Z,11.60
2023-12-11T01:43:18.158Z,11.60
2023-12-11T01:45:53.815Z,11.60
2023-12-11T01:48:20.908Z,11.60
2023-12-11T01:50:48.068Z,11.50
2023-12-11T01:53:14.989Z,11.50
2023-12-11T01:55:42.283Z,11.50
2023-12-11T01:58:09.808Z,11.50
2023-12-11T02:00:36.889Z,11.50
2023-12-11T02:03:03.933Z,11.50
2023-12-11T02:05:31.357Z,11.50
2023-12-11T02:07:58.357Z,11.60
2023-12-11T02:10:25.527Z,11.60
2023-12-11T02:12:52.518Z,11.60
2023-12-11T02:15:45.371Z,11.60
2023-12-11T02:18:14.710Z,11.60
2023-12-11T02:20:42.614Z,11.60
2023-12-11T02:23:46.694Z,11.60
2023-12-11T02:26:17.790Z,11.60
2023-12-11T02:28:45.372Z,11.60
2023-12-11T02:31:12.746Z,11.60
2023-12-11T02:33:39.756Z,11.60
2023-12-11T02:36:07.178Z,11.60
2023-12-11T02:38:34.101Z,11.60
2023-12-11T02:41:01.117Z,11.70
2023-12-11T02:43:28.037Z,11.70
2023-12-11T02:45:54.946Z,11.70
2023-12-11T02:48:21.891Z,11.80
2023-12-11T02:50:48.838Z,11.80
2023-12-11T02:53:15.721Z,11.80
2023-12-11T02:55:42.911Z,11.90
2023-12-11T02:58:09.815Z,11.90
2023-12-11T03:00:37.244Z,11.90
2023-12-11T03:03:04.667Z,11.90
2023-12-11T03:05:31.547Z,11.90
2023-12-11T03:07:58.487Z,11.90
2023-12-11T03:10:25.420Z,11.80
2023-12-11T03:12:52.293Z,11.90
2023-12-11T03:15:19.154Z,11.80
2023-12-11T03:17:48.172Z,11.80
2023-12-11T03:20:15.451Z,11.80
2023-12-11T03:22:42.385Z,11.70
2023-12-11T03:25:09.762Z,11.70
2023-12-11T03:27:36.968Z,11.60
2023-12-11T03:30:04.210Z,11.60
2023-12-11T03:32:31.221Z,11.50
2023-12-11T03:34:58.178Z,11.50
2023-12-11T03:37:25.065Z,11.50
2023-12-11T03:39:52.022Z,11.50
2023-12-11T03:42:18.974Z,11.50
2023-12-11T03:44:45.893Z,11.40
2023-12-11T03:47:13.325Z,11.40
2023-12-11T03:49:40.322Z,11.40
2023-12-11T03:52:07.233Z,11.40
2023-12-11T03:54:34.254Z,11.40
2023-12-11T03:57:01.112Z,11.40
2023-12-11T03:59:27.918Z,11.40
2023-12-11T04:01:54.894Z,11.40
2023-12-11T04:04:21.930Z,11.40
2023-12-11T04:06:48.911Z,11.40
2023-12-11T04:09:15.773Z,11.50
2023-12-11T04:11:44.434Z,11.50
2023-12-11T04:14:11.329Z,11.50
2023-12-11T04:16:42.748Z,11.50
2023-12-11T04:19:12.356Z,11.50
2023-12-11T04:21:39.797Z,11.60
2023-12-11T04:24:06.879Z,11.60
2023-12-11T04:26:33.807Z,11.60
2023-12-11T04:29:00.774Z,11.60
2023-12-11T04:31:27.742Z,11.70
2023-12-11T04:33:54.801Z,11.70
2023-12-11T04:36:21.880Z,11.70
2023-12-11T04:38:48.744Z,11.70
2023-12-11T04:41:15.628Z,11.70
2023-12-11T04:43:42.538Z,11.70
2023-12-11T04:46:09.356Z,11.70
2023-12-11T04:48:36.414Z,11.70
2023-12-11T04:51:04.427Z,11.70
2023-12-11T04:53:31.322Z,11.70
2023-12-11T04:55:58.213Z,11.60
2023-12-11T04:58:25.053Z,11.60
2023-12-11T05:00:51.973Z,11.60
2023-12-11T05:03:19.380Z,11.60
2023-12-11T05:05:46.245Z,11.60
2023-12-11T05:08:13.704Z,11.60
2023-12-11T05:10:40.496Z,11.60
2023-12-11T05:13:08.925Z,11.60
2023-12-11T05:15:35.897Z,11.60
2023-12-11T05:18:02.723Z,11.60
2023-12-11T05:20:29.558Z,11.60
2023-12-11T05:22:56.454Z,11.60
2023-12-11T05:25:23.348Z,11.60
2023-12-11T05:27:50.190Z,11.60
2023-12-11T05:30:17.247Z,11.60
2023-12-11T05:32:45.412Z,11.60
2023-12-11T05:35:14.985Z,11.60
2023-12-11T05:37:41.798Z,11.60
2023-12-11T05:40:21.810Z,11.50
2023-12-11T05:42:51.678Z,11.50
2023-12-11T05:45:18.789Z,11.40
2023-12-11T05:47:45.655Z,11.40
2023-12-11T05:50:13.362Z,11.40
2023-12-11T05:52:40.294Z,11.40
2023-12-11T05:55:07.461Z,11.40
2023-12-11T05:57:34.308Z,11.40
2023-12-11T06:00:01.170Z,11.40
2023-12-11T06:02:28.138Z,11.40
2023-12-11T06:04:55.112Z,11.40
2023-12-11T06:07:21.954Z,11.50
2023-12-11T06:09:48.802Z,11.40
2023-12-11T06:12:15.701Z,11.50
2023-12-11T06:14:45.211Z,11.50
2023-12-11T06:17:14.106Z,11.50
2023-12-11T06:19:44.388Z,11.50
2023-12-11T06:22:11.653Z,11.40
2023-12-11T06:24:42.556Z,11.40
2023-12-11T06:27:10.155Z,11.30
2023-12-11T06:29:37.874Z,11.30
2023-12-11T06:32:05.211Z,11.20
2023-12-11T06:34:33.105Z,11.20
2023-12-11T06:37:00.251Z,11.20
2023-12-11T06:39:28.245Z,11.10
2023-12-11T06:41:55.270Z,11.10
2023-12-11T06:44:22.722Z,11.00
2023-12-11T06:46:49.647Z,11.00
2023-12-11T06:49:16.733Z,10.90
2023-12-11T06:51:43.790Z,10.80
2023-12-11T06:54:12.167Z,10.80
2023-12-11T06:56:39.461Z,10.70
2023-12-11T06:59:06.345Z,10.70
2023-12-11T07:01:35.397Z,10.70
2023-12-11T07:04:04.433Z,10.70
2023-12-11T07:06:31.700Z,10.70
2023-12-11T07:08:59.135Z,10.80
2023-12-11T07:11:26.455Z,10.80
2023-12-11T07:13:54.723Z,10.80
2023-12-11T07:16:22.191Z,10.80
2023-12-11T07:18:49.224Z,10.90
2023-12-11T07:21:16.314Z,10.90
2023-12-11T07:23:45.125Z,10.90
2023-12-11T07:26:12.017Z,11.00
2023-12-11T07:28:40.007Z,11.00
2023-12-11T07:31:07.722Z,11.00
2023-12-11T07:33:35.535Z,11.10
2023-12-11T07:36:03.491Z,11.10
2023-12-11T07:38:31.513Z,11.10
2023-12-11T07:40:59.004Z,11.10
2023-12-11T07:43:26.180Z,11.10
2023-12-11T07:45:54.015Z,11.10
2023-12-11T07:48:21.424Z,11.20
2023-12-11T07:50:48.794Z,11.20
2023-12-11T07:53:15.894Z,11.20
2023-12-11T07:55:42.815Z,11.10
2023-12-11T07:58:11.925Z,11.20
2023-12-11T08:00:39.036Z,11.10
2023-12-11T08:03:07.422Z,11.10
2023-12-11T08:05:34.633Z,11.10
2023-12-11T08:08:02.666Z,11.10
2023-12-11T08:10:29.958Z,11.00
2023-12-11T08:12:56.981Z,10.90
2023-12-11T08:15:23.904Z,10.90
2023-12-11T08:17:50.842Z,10.90
2023-12-11T08:20:19.534Z,10.80
2023-12-11T08:22:46.888Z,10.80
2023-12-11T08:25:15.096Z,10.70
2023-12-11T08:27:43.787Z,10.70
2023-12-11T08:30:12.016Z,10.60
2023-12-11T08:32:41.011Z,10.60
2023-12-11T08:35:09.582Z,10.60
2023-12-11T08:37:37.921Z,10.50
2023-12-11T08:40:06.239Z,10.50
2023-12-11T08:42:38.907Z,10.50
2023-12-11T08:45:08.731Z,10.40
2023-12-11T08:47:39.102Z,10.50
2023-12-11T08:50:08.583Z,10.40
2023-12-11T08:52:37.105Z,10.50
2023-12-11T08:55:05.153Z,10.50
2023-12-11T08:57:32.669Z,10.50
2023-12-11T08:59:59.720Z,10.50
2023-12-11T09:02:26.720Z,10.50
2023-12-11T09:04:53.758Z,10.50
2023-12-11T09:07:20.780Z,10.60
2023-12-11T09:09:47.900Z,10.60
2023-12-11T09:12:23.462Z,10.60
2023-12-11T09:14:58.206Z,10.60
2023-12-11T09:17:25.292Z,10.60
2023-12-11T09:19:55.673Z,10.70
2023-12-11T09:22:24.078Z,10.70
2023-12-11T09:24:51.481Z,10.70
2023-12-11T09:27:18.428Z,10.70
2023-12-11T09:29:49.705Z,10.70
2023-12-11T09:32:16.911Z,10.80
2023-12-11T09:34:44.150Z,10.80
2023-12-11T09:37:11.188Z,10.80
2023-12-11T09:39:39.980Z,10.80
2023-12-11T09:42:08.440Z,10.80
2023-12-11T09:44:37.310Z,10.80
2023-12-11T09:47:12.240Z,10.80
2023-12-11T09:49:39.820Z,10.90
2023-12-11T09:52:07.246Z,10.80
2023-12-11T09:54:34.293Z,10.90
2023-12-11T09:57:02.160Z,10.80
2023-12-11T09:59:30.968Z,10.80
2023-12-11T10:01:58.954Z,10.80
2023-12-11T10:04:26.188Z,10.80
2023-12-11T10:06:53.713Z,10.80
2023-12-11T10:09:31.212Z,10.80
2023-12-11T10:12:02.995Z,10.80
2023-12-11T10:14:31.346Z,10.80
2023-12-11T10:16:59.096Z,10.80
2023-12-11T10:19:33.142Z,10.80
2023-12-11T10:22:01.825Z,10.80
2023-12-11T10:24:30.880Z,10.80
2023-12-11T10:26:58.530Z,10.80
2023-12-11T10:29:27.461Z,10.70
2023-12-11T10:32:03.974Z,10.70
2023-12-11T10:34:51.691Z,10.70
2023-12-11T10:37:19.084Z,10.70
2023-12-11T10:39:56.643Z,10.70
2023-12-11T10:42:24.681Z,10.70
2023-12-11T10:44:54.288Z,10.70
2023-12-11T10:47:22.063Z,10.70
2023-12-11T10:49:50.567Z,10.70
2023-12-11T10:52:18.840Z,10.80
2023-12-11T10:54:46.898Z,10.80
2023-12-11T10:57:16.194Z,10.80
2023-12-11T10:59:45.485Z,10.80
2023-12-11T11:02:16.840Z,10.80
2023-12-11T11:04:45.653Z,10.80
2023-12-11T11:07:24.343Z,10.80
2023-12-11T11:10:14.774Z,10.80
2023-12-11T11:13:21.817Z,10.80
2023-12-11T11:15:55.384Z,10.90
2023-12-11T11:18:22.509Z,10.90
2023-12-11T11:21:13.744Z,10.90
2023-12-11T11:23:43.522Z,10.90
2023-12-11T11:26:36.991Z,10.90
2023-12-11T11:29:05.924Z,10.90
2023-12-11T11:31:53.816Z,10.90
2023-12-11T11:34:46.380Z,10.90
2023-12-11T11:37:22.266Z,10.90
2023-12-11T11:40:04.274Z,10.90
2023-12-11T11:42:36.657Z,10.90
2023-12-11T11:45:06.503Z,10.90
2023-12-11T11:47:33.793Z,10.80
2023-12-11T11:50:08.801Z,10.70
2023-12-11T11:52:37.292Z,10.70
2023-12-11T11:55:10.384Z,10.60
2023-12-11T11:57:37.268Z,10.60
2023-12-11T12:00:07.271Z,10.50
2023-12-11T12:02:34.075Z,10.50
2023-12-11T12:05:12.025Z,10.50
2023-12-11T12:07:40.933Z,10.50
2023-12-11T12:10:14.298Z,10.50
2023-12-11T12:12:41.321Z,10.50
2023-12-11T12:15:08.987Z,10.60
2023-12-11T12:17:38.450Z,10.60
2023-12-11T12:20:15.883Z,10.60
2023-12-11T12:22:59.553Z,10.60
2023-12-11T12:25:27.863Z,10.70
2023-12-11T12:27:57.076Z,10.70
2023-12-11T12:30:24.329Z,10.80
2023-12-11T12:32:52.595Z,10.80
2023-12-11T12:35:21.304Z,10.80
2023-12-11T12:37:50.597Z,10.80
2023-12-11T12:40:18.903Z,10.90
2023-12-11T12:42:47.134Z,10.90
2023-12-11T12:45:34.269Z,10.90
2023-12-11T12:48:04.130Z,11.00
2023-12-11T12:50:31.207Z,11.00
2023-12-11T12:53:07.688Z,11.00
2023-12-11T12:55:34.819Z,11.00
2023-12-11T12:58:01.866Z,11.00
2023-12-11T13:00:28.956Z,11.00
2023-12-11T13:02:56.067Z,11.00
2023-12-11T13:05:37.047Z,11.00
2023-12-11T13:08:03.937Z,11.00
2023-12-11T13:10:30.831Z,11.00
2023-12-11T13:12:57.659Z,11.00
2023-12-11T13:15:24.497Z,11.00
2023-12-11T13:17:56.508Z,10.90
2023-12-11T13:20:23.699Z,11.00
2023-12-11T13:22:50.700Z,11.00
2023-12-11T13:25:17.580Z,11.00
2023-12-11T13:27:48.038Z,11.00
2023-12-11T13:30:18.041Z,11.00
2023-12-11T13:32:45.339Z,11.00
2023-12-11T13:35:12.425Z,11.00
2023-12-11T13:37:40.173Z,11.00
2023-12-11T13:40:08.417Z,11.00
2023-12-11T13:42:35.562Z,11.00
2023-12-11T13:45:03.039Z,11.00
2023-12-11T13:47:30.432Z,11.00
2023-12-11T13:49:57.807Z,11.00
2023-12-11T13:52:24.780Z,11.00
2023-12-11T13:54:52.059Z,11.00
2023-12-11T13:57:22.113Z,11.10
2023-12-11T13:59:50.544Z,11.00
2023-12-11T14:02:57.884Z,11.00
2023-12-11T14:05:05.614Z,11.00
2023-12-11T14:07:33.281Z,11.10
2023-12-11T14:10:00.500Z,11.10
2023-12-11T14:12:28.077Z,11.10
2023-12-11T14:14:54.884Z,11.10
2023-12-11T14:17:21.819Z,11.10
2023-12-11T14:19:50.063Z,11.10
2023-12-11T14:22:17.027Z,11.10
2023-12-11T14:24:45.339Z,11.10
2023-12-11T14:27:14.041Z,11.10
2023-12-11T14:29:41.942Z,11.10
2023-12-11T14:32:09.229Z,11.10
2023-12-11T14:34:42.722Z,11.10
2023-12-11T14:37:11.301Z,11.10
2023-12-11T14:39:40.133Z,11.10
2023-12-11T14:42:07.569Z,11.10
2023-12-11T14:44:37.870Z,11.10
2023-12-11T14:47:06.080Z,11.10
2023-12-11T14:49:33.715Z,11.10
2023-12-11T14:52:01.285Z,11.10
2023-12-11T14:54:28.133Z,11.10
2023-12-11T14:56:55.275Z,11.10
2023-12-11T14:59:22.206Z,11.10
2023-12-11T15:01:49.395Z,11.10
2023-12-11T15:04:16.390Z,11.10
2023-12-11T15:06:43.380Z,11.10
2023-12-11T15:09:14.789Z,11.10
2023-12-11T15:11:41.646Z,11.10
2023-12-11T15:14:09.614Z,11.10
2023-12-11T15:16:42.453Z,11.10
2023-12-11T15:19:10.339Z,11.10
2023-12-11T15:21:38.353Z,11.10
2023-12-11T15:24:06.627Z,11.10
2023-12-11T15:26:33.727Z,11.10
2023-12-11T15:29:04.868Z,11.10
2023-12-11T15:31:31.997Z,11.10
2023-12-11T15:33:58.944Z,11.10
2023-12-11T15:36:26.017Z,11.10
2023-12-11T15:38:53.008Z,11.10
2023-12-11T15:41:19.873Z,11.10
2023-12-11T15:43:49.578Z,11.10
2023-12-11T15:46:16.949Z,11.10
2023-12-11T15:48:48.111Z,11.10
2023-12-11T15:51:17.160Z,11.00
2023-12-11T15:53:48.079Z,11.10
2023-12-11T15:56:17.408Z,11.10
2023-12-11T15:58:45.236Z,11.10
2023-12-11T16:01:12.829Z,11.10
2023-12-11T16:03:40.293Z,11.10
2023-12-11T16:06:08.344Z,11.10
2023-12-11T16:08:35.509Z,11.10
2023-12-11T16:11:02.436Z,11.10
2023-12-11T16:13:29.490Z,11.10
2023-12-11T16:15:57.542Z,11.10
2023-12-11T16:18:24.557Z,11.00
2023-12-11T16:20:51.425Z,11.10
2023-12-11T16:23:18.274Z,11.00
2023-12-11T16:25:51.803Z,11.00
2023-12-11T16:28:26.914Z,11.00
2023-12-11T16:30:54.105Z,11.00
2023-12-11T16:33:21.348Z,11.00
2023-12-11T16:35:48.413Z,11.00
2023-12-11T16:38:15.297Z,11.00
2023-12-11T16:40:42.226Z,11.00
2023-12-11T16:43:09.896Z,11.00
2023-12-11T16:45:37.044Z,11.00
2023-12-11T16:48:04.183Z,11.00
2023-12-11T16:50:31.356Z,11.00
2023-12-11T16:52:58.215Z,11.00
2023-12-11T16:55:26.423Z,11.00
2023-12-11T16:57:53.466Z,11.10
2023-12-11T17:00:20.527Z,11.10
2023-12-11T17:02:47.400Z,11.10
2023-12-11T17:05:14.458Z,11.10
2023-12-11T17:07:41.425Z,11.10
2023-12-11T17:10:08.784Z,11.10
2023-12-11T17:12:36.460Z,11.10
2023-12-11T17:15:04.052Z,11.10
2023-12-11T17:17:31.601Z,11.10
2023-12-11T17:19:59.181Z,11.10
2023-12-11T17:22:26.715Z,11.10
2023-12-11T17:24:53.951Z,11.00
2023-12-11T17:27:21.062Z,11.10
2023-12-11T17:29:47.924Z,11.00
2023-12-11T17:32:14.833Z,11.00
2023-12-11T17:34:42.897Z,11.00
2023-12-11T17:37:10.110Z,11.00
2023-12-11T17:39:36.942Z,11.00
2023-12-11T17:42:04.023Z,11.00
2023-12-11T17:44:30.928Z,11.00
2023-12-11T17:46:57.682Z,11.10
2023-12-11T17:49:24.631Z,11.00
2023-12-11T17:51:53.191Z,11.00
2023-12-11T17:54:20.105Z,11.00
2023-12-11T17:56:47.184Z,11.00
2023-12-11T17:59:14.030Z,11.00
2023-12-11T18:01:41.350Z,11.00
2023-12-11T18:04:11.576Z,10.90
2023-12-11T18:06:40.908Z,10.90
2023-12-11T18:09:08.467Z,10.90
2023-12-11T18:11:35.400Z,10.80
2023-12-11T18:14:02.350Z,10.80
2023-12-11T18:16:29.216Z,10.80
2023-12-11T18:18:56.281Z,10.80
2023-12-11T18:21:23.166Z,10.80
2023-12-11T18:23:49.950Z,10.80
2023-12-11T18:26:16.796Z,10.80
2023-12-11T18:28:43.850Z,10.80
2023-12-11T18:31:10.799Z,10.80
2023-12-11T18:33:37.742Z,10.80
2023-12-11T18:36:05.012Z,10.80
2023-12-11T18:38:31.895Z,10.80
2023-12-11T18:40:59.469Z,10.80
2023-12-11T18:43:26.664Z,10.80
2023-12-11T18:45:53.846Z,10.80
2023-12-11T18:48:23.359Z,10.80
2023-12-11T18:50:50.322Z,10.80
2023-12-11T18:53:17.152Z,10.80
2023-12-11T18:55:59.743Z,10.80
2023-12-11T18:58:27.080Z,10.80
2023-12-11T19:00:54.120Z,10.80
2023-12-11T19:03:21.047Z,10.80
2023-12-11T19:05:47.872Z,10.80
2023-12-11T19:08:14.727Z,10.80
2023-12-11T19:10:41.549Z,10.80
2023-12-11T19:13:08.433Z,10.90
2023-12-11T19:15:35.305Z,10.80
2023-12-11T19:18:02.657Z,10.90
2023-12-11T19:20:29.567Z,10.90
2023-12-11T19:22:56.416Z,10.90
2023-12-11T19:25:23.251Z,10.90
2023-12-11T19:27:50.137Z,10.90
2023-12-11T19:30:17.137Z,10.90
2023-12-11T19:32:44.749Z,11.00
2023-12-11T19:35:12.776Z,10.90
2023-12-11T19:37:40.600Z,11.00
2023-12-11T19:40:08.305Z,11.00
2023-12-11T19:42:35.304Z,11.00
2023-12-11T19:45:02.122Z,11.00
2023-12-11T19:47:29.341Z,10.90
2023-12-11T19:49:56.308Z,11.00
2023-12-11T19:52:23.193Z,11.00
2023-12-11T19:54:50.072Z,11.00
2023-12-11T19:57:17.062Z,11.00
2023-12-11T19:59:44.933Z,10.90
2023-12-11T20:02:12.007Z,10.90
2023-12-11T20:04:42.860Z,10.90
2023-12-11T20:07:10.213Z,10.90
2023-12-11T20:09:37.266Z,10.90
2023-12-11T20:12:11.073Z,10.80
2023-12-11T20:14:41.255Z,10.80
2023-12-11T20:17:08.067Z,10.80
2023-12-11T20:19:35.410Z,10.80
2023-12-11T20:22:02.451Z,10.80
2023-12-11T20:24:29.733Z,10.80
2023-12-11T20:26:56.620Z,10.80
2023-12-11T20:29:23.538Z,10.80
2023-12-11T20:31:53.155Z,10.80
2023-12-11T20:34:20.285Z,10.80
2023-12-11T20:36:49.265Z,10.80
2023-12-11T20:39:16.194Z,10.80
2023-12-11T20:41:43.054Z,10.80
2023-12-11T20:44:09.917Z,10.80
2023-12-11T20:46:36.873Z,10.80
2023-12-11T20:49:03.899Z,10.70
2023-12-11T20:51:30.759Z,10.70
2023-12-11T20:53:57.575Z,10.60
2023-12-11T20:56:26.390Z,10.60
2023-12-11T20:58:54.538Z,10.60
2023-12-11T21:01:28.999Z,10.60
2023-12-11T21:04:01.583Z,10.50
2023-12-11T21:06:29.418Z,10.50
2023-12-11T21:08:56.733Z,10.50
2023-12-11T21:11:23.976Z,10.50
2023-12-11T21:13:51.080Z,10.50
2023-12-11T21:16:18.862Z,10.40
2023-12-11T21:18:46.884Z,10.40
2023-12-11T21:21:17.350Z,10.40
2023-12-11T21:23:45.081Z,10.40
2023-12-11T21:26:22.515Z,10.40
2023-12-11T21:28:50.367Z,10.40
2023-12-11T21:31:19.099Z,10.40
2023-12-11T21:33:46.447Z,10.40
2023-12-11T21:36:13.738Z,10.40
2023-12-11T21:38:40.719Z,10.40
2023-12-11T21:41:14.244Z,10.40
2023-12-11T21:43:45.177Z,10.40
2023-12-11T21:46:12.362Z,10.40
2023-12-11T21:48:40.367Z,10.40
2023-12-11T21:51:07.910Z,10.40
2023-12-11T21:53:34.847Z,10.40
2023-12-11T21:56:01.939Z,10.30
2023-12-11T21:58:29.101Z,10.30
2023-12-11T22:00:56.902Z,10.30
2023-12-11T22:03:23.935Z,10.30
2023-12-11T22:05:50.961Z,10.30
2023-12-11T22:08:17.803Z,10.30
2023-12-11T22:10:44.640Z,10.30
2023-12-11T22:13:11.573Z,10.30
2023-12-11T22:15:38.482Z,10.30
2023-12-11T22:18:05.571Z,10.30
2023-12-11T22:20:32.696Z,10.20
2023-12-11T22:22:59.493Z,10.20
2023-12-11T22:25:26.387Z,10.20
2023-12-11T22:27:54.054Z,10.20
2023-12-11T22:30:20.845Z,10.20
2023-12-11T22:32:47.691Z,10.10
2023-12-11T22:35:16.634Z,10.10
2023-12-11T22:37:43.870Z,10.00
2023-12-11T22:40:11.463Z,10.00
2023-12-11T22:42:38.346Z,10.00
2023-12-11T22:45:05.573Z,9.90
2023-12-11T22:47:32.645Z,9.90
2023-12-11T22:49:59.589Z,9.90
2023-12-11T22:52:26.750Z,9.80
2023-12-11T22:54:53.644Z,9.80
2023-12-11T22:57:20.433Z,9.70
2023-12-11T22:59:47.252Z,9.70
2023-12-11T23:02:14.148Z,9.60
2023-12-11T23:04:41.128Z,9.60
2023-12-11T23:07:08.397Z,9.60
2023-12-11T23:09:35.551Z,9.50
2023-12-11T23:12:02.381Z,9.50
2023-12-11T23:14:29.329Z,9.50
2023-12-11T23:16:56.125Z,9.50
2023-12-11T23:19:23.115Z,9.40
2023-12-11T23:21:50.602Z,9.40
2023-12-11T23:24:18.581Z,9.40
2023-12-11T23:26:45.466Z,9.40
2023-12-11T23:29:12.255Z,9.30
2023-12-11T23:31:39.066Z,9.30
2023-12-11T23:34:05.884Z,9.30
2023-12-11T23:36:32.828Z,9.20
2023-12-11T23:38:59.603Z,9.20
2023-12-11T23:41:26.407Z,9.20
2023-12-11T23:43:53.989Z,9.20
2023-12-11T23:46:20.875Z,9.20
2023-12-11T23:48:47.921Z,9.10
2023-12-11T23:51:14.766Z,9.10
2023-12-11T23:53:43.856Z,9.10
2023-12-11T23:56:10.643Z,9.10
2023-12-11T23:58:37.417Z,9.10
